createdAt,value
2022-11-03T00:00:36.809Z,99492.31
2022-11-03T00:03:03.697Z,99494.31
2022-11-03T00:05:48.994Z,99483.13
2022-11-03T00:08:15.700Z,99486.22
2022-11-03T00:10:42.240Z,99481.00
2022-11-03T00:13:08.930Z,99484.31
2022-11-03T00:15:35.535Z,99485.34
2022-11-03T00:18:02.083Z,99491.78
2022-11-03T00:20:28.656Z,99490.91
2022-11-03T00:22:55.987Z,99495.22
2022-11-03T00:25:22.567Z,99486.00
2022-11-03T00:27:54.486Z,99488.97
2022-11-03T00:30:21.042Z,99475.38
2022-11-03T00:32:47.555Z,99492.06
2022-11-03T00:35:14.172Z,99497.28
2022-11-03T00:37:40.645Z,99490.75
2022-11-03T00:40:07.844Z,99480.34
2022-11-03T00:42:35.053Z,99477.84
2022-11-03T00:45:01.593Z,99473.47
2022-11-03T00:47:28.077Z,99475.50
2022-11-03T00:49:54.572Z,99470.94
2022-11-03T00:52:21.063Z,99480.75
2022-11-03T00:54:51.330Z,99487.16
2022-11-03T00:57:21.630Z,99490.88
2022-11-03T00:59:48.090Z,99491.56
2022-11-03T01:02:14.713Z,99492.94
2022-11-03T01:04:59.720Z,99495.84
2022-11-03T01:07:26.226Z,99497.53
2022-11-03T01:09:52.735Z,99499.84
2022-11-03T01:12:19.474Z,99487.00
2022-11-03T01:14:53.051Z,99483.44
2022-11-03T01:17:24.623Z,99482.63
2022-11-03T01:19:51.166Z,99474.69
2022-11-03T01:22:18.373Z,99470.50
2022-11-03T01:24:45.811Z,99475.50
2022-11-03T01:27:16.235Z,99465.38
2022-11-03T01:29:43.243Z,99462.34
2022-11-03T01:32:10.194Z,99455.84
2022-11-03T01:34:37.123Z,99456.03
2022-11-03T01:37:03.968Z,99452.28
2022-11-03T01:39:30.494Z,99454.81
2022-11-03T01:41:57.116Z,99456.66
2022-11-03T01:44:30.811Z,99450.22
2022-11-03T01:47:03.379Z,99442.72
2022-11-03T01:49:40.134Z,99459.16
2022-11-03T01:52:11.042Z,99461.03
2022-11-03T01:54:38.911Z,99451.47
2022-11-03T01:57:10.391Z,99455.84
2022-11-03T01:59:37.087Z,99454.56
2022-11-03T02:02:03.630Z,99446.69
2022-11-03T02:04:32.739Z,99444.00
2022-11-03T02:07:15.716Z,99437.53
2022-11-03T02:09:42.292Z,99444.59
2022-11-03T02:12:09.119Z,99440.22
2022-11-03T02:14:39.192Z,99439.81
2022-11-03T02:17:08.715Z,99436.28
2022-11-03T02:19:56.155Z,99441.88
2022-11-03T02:22:29.568Z,99435.66
2022-11-03T02:25:16.091Z,99438.34
2022-11-03T02:27:43.093Z,99438.34
2022-11-03T02:30:10.479Z,99444.38
2022-11-03T02:33:01.159Z,99431.06
2022-11-03T02:35:32.875Z,99417.56
2022-11-03T02:38:01.344Z,99418.41
2022-11-03T02:40:35.073Z,99415.50
2022-11-03T02:43:02.168Z,99413.63
2022-11-03T02:45:29.218Z,99402.38
2022-11-03T02:47:58.719Z,99393.19
2022-11-03T02:50:29.977Z,99404.28
2022-11-03T02:52:56.660Z,99386.53
2022-11-03T02:55:33.148Z,99407.44
2022-11-03T02:58:02.458Z,99404.56
2022-11-03T03:00:31.319Z,99389.94
2022-11-03T03:03:05.572Z,99402.88
2022-11-03T03:05:34.188Z,99408.34
2022-11-03T03:08:11.987Z,99405.59
2022-11-03T03:10:43.989Z,99405.75
2022-11-03T03:13:14.053Z,99403.44
2022-11-03T03:15:46.600Z,99396.56
2022-11-03T03:18:21.242Z,99402.03
2022-11-03T03:20:56.092Z,99406.41
2022-11-03T03:23:29.959Z,99404.91
2022-11-03T03:26:10.389Z,99408.09
2022-11-03T03:28:39.917Z,99403.88
2022-11-03T03:31:09.546Z,99397.63
2022-11-03T03:33:38.131Z,99398.13
2022-11-03T03:36:10.617Z,99392.91
2022-11-03T03:38:40.388Z,99377.25
2022-11-03T03:41:10.884Z,99371.84
2022-11-03T03:43:37.807Z,99382.09
2022-11-03T03:46:08.176Z,99386.84
2022-11-03T03:48:34.756Z,99385.16
2022-11-03T03:51:02.056Z,99390.44
2022-11-03T03:53:29.895Z,99392.06
2022-11-03T03:55:58.262Z,99373.50
2022-11-03T03:58:24.901Z,99386.66
2022-11-03T04:00:51.480Z,99386.84
2022-11-03T04:03:20.422Z,99386.00
2022-11-03T04:05:47.492Z,99384.13
2022-11-03T04:08:15.455Z,99384.13
2022-11-03T04:11:01.923Z,99388.06
2022-11-03T04:13:47.222Z,99384.34
2022-11-03T04:16:32.316Z,99389.88
2022-11-03T04:19:17.188Z,99381.44
2022-11-03T04:22:02.043Z,99378.91
2022-11-03T04:24:28.535Z,99382.22
2022-11-03T04:26:58.011Z,99386.59
2022-11-03T04:29:24.761Z,99382.03
2022-11-03T04:31:51.215Z,99375.78
2022-11-03T04:34:17.699Z,99376.63
2022-11-03T04:36:44.163Z,99373.72
2022-11-03T04:39:17.355Z,99367.69
2022-11-03T04:41:44.350Z,99364.34
2022-11-03T04:44:16.632Z,99371.44
2022-11-03T04:46:43.992Z,99372.25
2022-11-03T04:49:21.801Z,99371.22
2022-11-03T04:51:48.751Z,99367.06
2022-11-03T04:54:23.438Z,99357.06
2022-11-03T04:56:49.940Z,99358.75
2022-11-03T04:59:16.759Z,99357.06
2022-11-03T05:01:45.346Z,99359.56
2022-11-03T05:04:13.844Z,99354.19
2022-11-03T05:06:42.054Z,99352.91
2022-11-03T05:09:15.724Z,99342.53
2022-11-03T05:11:45.399Z,99343.94
2022-11-03T05:14:31.358Z,99347.09
2022-11-03T05:16:58.742Z,99344.59
2022-11-03T05:19:37.805Z,99341.63
2022-11-03T05:22:05.293Z,99334.97
2022-11-03T05:24:32.887Z,99328.31
2022-11-03T05:26:59.817Z,99332.50
2022-11-03T05:29:38.513Z,99331.44
2022-11-03T05:32:12.049Z,99326.66
2022-11-03T05:34:43.700Z,99336.03
2022-11-03T05:37:26.563Z,99332.06
2022-11-03T05:40:22.584Z,99330.00
2022-11-03T05:42:52.616Z,99319.81
2022-11-03T05:45:23.262Z,99321.88
2022-11-03T05:47:51.328Z,99328.38
2022-11-03T05:50:21.862Z,99328.75
2022-11-03T05:52:50.543Z,99321.50
2022-11-03T05:55:26.975Z,99315.03
2022-11-03T05:57:59.816Z,99328.59
2022-11-03T06:00:32.370Z,99331.94
2022-11-03T06:03:00.142Z,99327.16
2022-11-03T06:05:27.390Z,99324.38
2022-11-03T06:07:55.837Z,99322.09
2022-11-03T06:10:34.532Z,99328.97
2022-11-03T06:13:30.268Z,99327.78
2022-11-03T06:15:59.299Z,99317.13
2022-11-03T06:18:30.777Z,99327.94
2022-11-03T06:20:59.996Z,99334.63
2022-11-03T06:23:26.608Z,99337.53
2022-11-03T06:25:54.489Z,99335.41
2022-11-03T06:28:23.728Z,99340.88
2022-11-03T06:30:51.367Z,99332.13
2022-11-03T06:33:26.059Z,99332.75
2022-11-03T06:35:55.961Z,99334.84
2022-11-03T06:38:25.510Z,99332.78
2022-11-03T06:40:52.992Z,99339.03
2022-11-03T06:43:24.742Z,99339.47
2022-11-03T06:45:56.641Z,99339.69
2022-11-03T06:48:28.404Z,99332.84
2022-11-03T06:50:56.600Z,99334.59
2022-11-03T06:53:26.719Z,99328.34
2022-11-03T06:55:53.798Z,99331.91
2022-11-03T06:58:24.555Z,99327.78
2022-11-03T07:00:52.067Z,99335.28
2022-11-03T07:03:35.007Z,99340.06
2022-11-03T07:06:35.521Z,99344.44
2022-11-03T07:09:04.883Z,99335.28
2022-11-03T07:11:35.869Z,99338.81
2022-11-03T07:14:17.145Z,99328.00
2022-11-03T07:16:45.582Z,99334.03
2022-11-03T07:19:19.242Z,99336.13
2022-11-03T07:21:46.745Z,99337.78
2022-11-03T07:24:27.419Z,99335.53
2022-11-03T07:27:15.020Z,99343.66
2022-11-03T07:29:42.201Z,99330.59
2022-11-03T07:32:32.680Z,99337.91
2022-11-03T07:35:05.066Z,99338.56
2022-11-03T07:37:31.806Z,99335.28
2022-11-03T07:39:58.681Z,99333.19
2022-11-03T07:42:26.175Z,99320.47
2022-11-03T07:44:55.851Z,99331.13
2022-11-03T07:47:25.718Z,99318.84
2022-11-03T07:49:52.458Z,99257.34
2022-11-03T07:52:24.177Z,99318.22
2022-11-03T07:54:52.166Z,99321.50
2022-11-03T07:57:25.227Z,99327.31
2022-11-03T08:00:08.935Z,99318.19
2022-11-03T08:02:44.898Z,99313.22
2022-11-03T08:05:11.513Z,99308.25
2022-11-03T08:07:38.105Z,99307.25
2022-11-03T08:10:06.755Z,99299.13
2022-11-03T08:12:33.347Z,99300.03
2022-11-03T08:15:00.389Z,99299.59
2022-11-03T08:17:26.930Z,99307.34
2022-11-03T08:19:53.398Z,99294.88
2022-11-03T08:22:19.907Z,99295.06
2022-11-03T08:24:46.398Z,99285.06
2022-11-03T08:27:12.901Z,99283.00
2022-11-03T08:29:39.542Z,99294.03
2022-11-03T08:32:06.120Z,99292.34
2022-11-03T08:34:32.911Z,99290.69
2022-11-03T08:36:59.429Z,99284.59
2022-11-03T08:39:25.893Z,99283.56
2022-11-03T08:41:52.368Z,99278.41
2022-11-03T08:44:18.842Z,99283.19
2022-11-03T08:46:45.335Z,99288.41
2022-11-03T08:49:11.776Z,99285.91
2022-11-03T08:51:43.937Z,99269.47
2022-11-03T08:54:11.015Z,99269.47
2022-11-03T08:56:37.542Z,99268.44
2022-11-03T08:59:04.020Z,99271.97
2022-11-03T09:01:30.558Z,99279.03
2022-11-03T09:03:57.089Z,99284.28
2022-11-03T09:06:23.688Z,99281.94
2022-11-03T09:11:36.809Z,99281.13
2022-11-03T09:14:03.913Z,99271.13
2022-11-03T09:16:30.416Z,99278.63
2022-11-03T09:18:56.927Z,99274.03
2022-11-03T09:21:23.512Z,99272.81
2022-11-03T09:23:50.175Z,99276.53
2022-11-03T09:26:16.828Z,99274.88
2022-11-03T09:28:43.460Z,99270.47
2022-11-03T09:31:09.992Z,99263.59
2022-11-03T09:33:36.942Z,99268.59
2022-11-03T09:36:03.548Z,99256.47
2022-11-03T09:38:30.054Z,99246.03
2022-11-03T09:40:56.661Z,99248.09
2022-11-03T09:43:23.328Z,99252.47
2022-11-03T09:45:49.922Z,99251.19
2022-11-03T09:48:16.536Z,99241.84
2022-11-03T09:50:43.230Z,99236.81
2022-11-03T09:53:11.702Z,99229.31
2022-11-03T09:55:38.154Z,99226.19
2022-11-03T09:58:13.354Z,99210.56
2022-11-03T10:00:39.998Z,99214.53
2022-11-03T10:03:09.629Z,99200.31
2022-11-03T10:05:36.375Z,99189.28
2022-11-03T10:08:07.134Z,99174.22
2022-11-03T10:10:34.381Z,99160.25
2022-11-03T10:13:01.514Z,99161.84
2022-11-03T10:15:28.352Z,99156.59
2022-11-03T10:17:55.574Z,99162.19
2022-11-03T10:20:23.015Z,99156.19
2022-11-03T10:22:53.979Z,99150.28
2022-11-03T10:25:37.208Z,99156.28
2022-11-03T10:28:20.681Z,99139.75
2022-11-03T10:31:13.941Z,99132.44
2022-11-03T10:33:42.427Z,99123.44
2022-11-03T10:36:17.772Z,99107.78
2022-11-03T10:38:44.976Z,99114.41
2022-11-03T10:41:17.229Z,99111.44
2022-11-03T10:43:45.368Z,99090.06
2022-11-03T10:46:44.533Z,99093.38
2022-11-03T10:49:10.639Z,99100.88
2022-11-03T10:51:37.453Z,99089.91
2022-11-03T10:54:05.466Z,99087.91
2022-11-03T10:56:32.760Z,99071.75
2022-11-03T10:59:00.960Z,99084.34
2022-11-03T11:01:27.611Z,99088.06
2022-11-03T11:03:55.236Z,99092.72
2022-11-03T11:06:26.582Z,99077.78
2022-11-03T11:08:59.937Z,99064.84
2022-11-03T11:11:27.283Z,99068.06
2022-11-03T11:14:28.175Z,99071.69
2022-11-03T11:16:58.855Z,99069.59
2022-11-03T11:19:27.392Z,99065.22
2022-11-03T11:21:53.788Z,99057.22
2022-11-03T11:24:43.424Z,99045.69
2022-11-03T11:27:34.550Z,99045.38
2022-11-03T11:30:04.849Z,99039.47
2022-11-03T11:32:55.901Z,99020.19
2022-11-03T11:35:22.353Z,99017.72
2022-11-03T11:37:48.935Z,99016.28
2022-11-03T11:40:24.472Z,99016.13
2022-11-03T11:43:06.615Z,99002.41
2022-11-03T11:46:11.164Z,98980.81
2022-11-03T11:48:37.687Z,98997.31
2022-11-03T11:51:04.239Z,99005.41
2022-11-03T11:53:38.972Z,99016.44
2022-11-03T11:56:05.803Z,98997.97
2022-11-03T11:58:42.255Z,98991.28
2022-11-03T12:01:23.561Z,98977.72
2022-11-03T12:03:52.102Z,98972.94
2022-11-03T12:06:38.208Z,98966.16
2022-11-03T12:09:09.558Z,98947.22
2022-11-03T12:11:57.183Z,98954.16
2022-11-03T12:14:28.672Z,98941.34
2022-11-03T12:16:56.292Z,98951.69
2022-11-03T12:19:44.971Z,98935.75
2022-11-03T12:22:23.759Z,98933.50
2022-11-03T12:24:53.399Z,98928.72
2022-11-03T12:27:25.939Z,98928.50
2022-11-03T12:29:56.863Z,98924.91
2022-11-03T12:32:33.849Z,98916.50
2022-11-03T12:35:02.649Z,98913.72
2022-11-03T12:37:29.195Z,98905.22
2022-11-03T12:39:55.718Z,98911.47
2022-11-03T12:42:24.794Z,98906.56
2022-11-03T12:44:51.809Z,98893.53
2022-11-03T12:47:18.282Z,98883.72
2022-11-03T12:49:44.887Z,98879.97
2022-11-03T12:52:11.415Z,98870.47
2022-11-03T12:54:38.120Z,98874.53
2022-11-03T12:57:04.587Z,98875.13
2022-11-03T12:59:31.097Z,98870.09
2022-11-03T13:01:57.679Z,98863.44
2022-11-03T13:04:24.348Z,98866.22
2022-11-03T13:06:50.871Z,98862.47
2022-11-03T13:09:17.457Z,98836.13
2022-11-03T13:12:02.564Z,98866.28
2022-11-03T13:14:29.128Z,98854.09
2022-11-03T13:16:55.603Z,98859.84
2022-11-03T13:19:22.596Z,98857.97
2022-11-03T13:21:49.068Z,98857.22
2022-11-03T13:24:15.638Z,98844.06
2022-11-03T13:26:42.132Z,98834.13
2022-11-03T13:29:08.651Z,98845.81
2022-11-03T13:31:35.660Z,98851.28
2022-11-03T13:34:02.275Z,98837.94
2022-11-03T13:36:28.836Z,98831.78
2022-11-03T13:38:55.394Z,98834.50
2022-11-03T13:41:21.850Z,98833.06
2022-11-03T13:43:48.373Z,98829.44
2022-11-03T13:46:14.825Z,98823.59
2022-11-03T13:51:27.980Z,98820.06
2022-11-03T13:59:28.280Z,98806.69
2022-11-03T14:04:43.069Z,98800.69
2022-11-03T14:07:10.457Z,98790.84
2022-11-03T14:12:22.086Z,98794.78
2022-11-03T14:14:48.743Z,98786.94
2022-11-03T14:17:15.281Z,98784.78
2022-11-03T14:19:47.320Z,98769.41
2022-11-03T14:22:17.281Z,98768.06
2022-11-03T14:24:44.412Z,98772.97
2022-11-03T14:27:10.957Z,98776.06
2022-11-03T14:29:39.171Z,98763.53
2022-11-03T14:32:06.314Z,98771.91
2022-11-03T14:34:33.099Z,98759.19
2022-11-03T14:36:59.763Z,98763.53
2022-11-03T14:39:26.744Z,98749.25
2022-11-03T14:42:05.665Z,98752.25
2022-11-03T14:44:35.998Z,98755.56
2022-11-03T14:47:03.988Z,98756.84
2022-11-03T14:49:31.301Z,98752.09
2022-11-03T14:51:59.617Z,98735.69
2022-11-03T14:54:26.239Z,98739.22
2022-11-03T14:56:53.752Z,98731.53
2022-11-03T14:59:21.082Z,98729.13
2022-11-03T15:01:48.707Z,98728.81
2022-11-03T15:04:15.328Z,98727.47
2022-11-03T15:06:41.914Z,98726.22
2022-11-03T15:11:41.581Z,98709.78
2022-11-03T15:14:08.599Z,98716.13
2022-11-03T15:16:36.152Z,98710.06
2022-11-03T15:19:06.012Z,98714.72
2022-11-03T15:21:33.338Z,98700.00
2022-11-03T15:26:46.406Z,98697.25
2022-11-03T15:29:12.947Z,98688.56
2022-11-03T15:31:44.473Z,98658.59
2022-11-03T15:34:14.020Z,98687.34
2022-11-03T15:36:40.502Z,98677.16
2022-11-03T15:39:07.016Z,98678.63
2022-11-03T15:41:33.484Z,98678.16
2022-11-03T15:43:59.987Z,98671.91
2022-11-03T15:46:26.692Z,98676.97
2022-11-03T15:48:54.430Z,98667.88
2022-11-03T15:51:20.982Z,98660.13
2022-11-03T15:53:47.464Z,98663.69
2022-11-03T15:56:14.179Z,98662.06
2022-11-03T15:58:40.759Z,98653.94
2022-11-03T16:01:07.403Z,98653.94
2022-11-03T16:03:34.084Z,98652.88
2022-11-03T16:06:00.672Z,98652.13
2022-11-03T16:08:27.329Z,98649.56
2022-11-03T16:10:57.984Z,98641.22
2022-11-03T16:13:25.492Z,98642.50
2022-11-03T16:15:54.268Z,98632.75
2022-11-03T16:18:20.778Z,98632.41
2022-11-03T16:20:47.232Z,98632.63
2022-11-03T16:23:13.833Z,98622.41
2022-11-03T16:25:40.373Z,98614.50
2022-11-03T16:28:07.101Z,98613.47
2022-11-03T16:30:35.221Z,98605.13
2022-11-03T16:33:01.761Z,98604.69
2022-11-03T16:35:29.570Z,98608.72
2022-11-03T16:37:56.304Z,98601.88
2022-11-03T16:40:22.820Z,98605.56
2022-11-03T16:42:49.340Z,98595.78
2022-11-03T16:45:22.761Z,98591.75
2022-11-03T16:47:50.149Z,98587.31
2022-11-03T16:50:17.252Z,98591.47
2022-11-03T16:52:44.480Z,98579.78
2022-11-03T16:55:11.851Z,98582.72
2022-11-03T16:57:39.291Z,98580.34
2022-11-03T17:00:08.184Z,98570.56
2022-11-03T17:02:34.671Z,98570.75
2022-11-03T17:05:01.209Z,98569.38
2022-11-03T17:07:27.684Z,98569.78
2022-11-03T17:09:54.215Z,98558.31
2022-11-03T17:12:20.685Z,98559.63
2022-11-03T17:14:50.077Z,98559.81
2022-11-03T17:17:19.159Z,98548.09
2022-11-03T17:19:45.787Z,98540.78
2022-11-03T17:22:12.282Z,98547.44
2022-11-03T17:24:38.995Z,98553.34
2022-11-03T17:27:14.754Z,98545.88
2022-11-03T17:30:01.827Z,98544.78
2022-11-03T17:32:29.592Z,98539.69
2022-11-03T17:34:57.556Z,98535.88
2022-11-03T17:37:25.138Z,98540.47
2022-11-03T17:39:55.932Z,98532.44
2022-11-03T17:42:27.328Z,98531.91
2022-11-03T17:44:56.248Z,98534.47
2022-11-03T17:47:23.591Z,98537.00
2022-11-03T17:49:50.105Z,98532.22
2022-11-03T17:52:28.644Z,98530.94
2022-11-03T17:54:59.514Z,98522.44
2022-11-03T17:57:26.552Z,98517.69
2022-11-03T17:59:54.934Z,98513.28
2022-11-03T18:02:26.257Z,98506.75
2022-11-03T18:04:57.899Z,98511.22
2022-11-03T18:07:26.400Z,98513.50
2022-11-03T18:09:53.333Z,98508.59
2022-11-03T18:12:43.710Z,98514.00
2022-11-03T18:15:18.964Z,98506.03
2022-11-03T18:17:45.711Z,98495.06
2022-11-03T18:20:14.529Z,98502.13
2022-11-03T18:22:41.003Z,98489.44
2022-11-03T18:25:14.788Z,98484.25
2022-11-03T18:27:41.796Z,98482.56
2022-11-03T18:30:09.471Z,98474.44
2022-11-03T18:32:36.732Z,98474.25
2022-11-03T18:35:03.825Z,98471.56
2022-11-03T18:37:31.669Z,98469.28
2022-11-03T18:39:58.299Z,98479.03
2022-11-03T18:42:24.784Z,98469.00
2022-11-03T18:44:51.511Z,98468.94
2022-11-03T18:47:18.028Z,98463.06
2022-11-03T18:49:44.540Z,98459.84
2022-11-03T18:52:13.787Z,98455.38
2022-11-03T18:54:45.005Z,98458.34
2022-11-03T18:57:12.658Z,98455.66
2022-11-03T18:59:44.428Z,98450.47
2022-11-03T19:02:28.173Z,98450.38
2022-11-03T19:04:54.720Z,98453.94
2022-11-03T19:07:31.813Z,98442.31
2022-11-03T19:09:58.831Z,98436.91
2022-11-03T19:12:25.330Z,98435.94
2022-11-03T19:14:51.979Z,98424.66
2022-11-03T19:17:24.279Z,98414.00
2022-11-03T19:19:52.516Z,98403.81
2022-11-03T19:22:21.004Z,98408.13
2022-11-03T19:24:47.803Z,98392.44
2022-11-03T19:27:20.172Z,98391.78
2022-11-03T19:29:47.497Z,98392.69
2022-11-03T19:32:30.638Z,98388.47
2022-11-03T19:35:00.037Z,98384.56
2022-11-03T19:37:31.004Z,98361.94
2022-11-03T19:40:00.894Z,98364.59
2022-11-03T19:42:27.421Z,98363.59
2022-11-03T19:45:05.853Z,98358.59
2022-11-03T19:50:41.099Z,98354.06
2022-11-03T19:53:07.764Z,98349.13
2022-11-03T19:55:39.206Z,98345.72
2022-11-03T19:58:15.325Z,98339.13
2022-11-03T20:00:42.852Z,98334.25
2022-11-03T20:03:09.680Z,98321.84
2022-11-03T20:05:36.381Z,98316.44
2022-11-03T20:08:06.541Z,98313.97
2022-11-03T20:10:35.918Z,98312.09
2022-11-03T20:13:03.549Z,98302.25
2022-11-03T20:15:30.076Z,98306.84
2022-11-03T20:17:56.545Z,98307.75
2022-11-03T20:20:26.838Z,98304.84
2022-11-03T20:22:57.486Z,98295.66
2022-11-03T20:25:29.592Z,98286.00
2022-11-03T20:27:57.572Z,98286.97
2022-11-03T20:30:28.889Z,98284.06
2022-11-03T20:32:55.465Z,98280.75
2022-11-03T20:35:24.930Z,98281.44
2022-11-03T20:37:55.051Z,98274.16
2022-11-03T20:40:23.396Z,98273.31
2022-11-03T20:42:51.892Z,98257.94
2022-11-03T20:45:20.376Z,98256.28
2022-11-03T20:47:48.251Z,98252.97
2022-11-03T20:50:17.006Z,98246.97
2022-11-03T20:52:44.203Z,98250.50
2022-11-03T20:55:24.577Z,98236.91
2022-11-03T20:57:53.169Z,98223.69
2022-11-03T21:00:21.316Z,98203.28
2022-11-03T21:02:48.970Z,98191.75
2022-11-03T21:05:29.162Z,98191.16
2022-11-03T21:07:55.786Z,98198.78
2022-11-03T21:10:23.609Z,98197.50
2022-11-03T21:12:50.145Z,98197.13
2022-11-03T21:15:36.904Z,98194.66
2022-11-03T21:18:28.976Z,98181.53
2022-11-03T21:20:55.874Z,98171.00
2022-11-03T21:23:27.232Z,98171.84
2022-11-03T21:25:56.879Z,98168.31
2022-11-03T21:28:24.019Z,98169.44
2022-11-03T21:30:53.235Z,98177.47
2022-11-03T21:33:20.867Z,98163.81
2022-11-03T21:35:48.503Z,98170.66
2022-11-03T21:38:15.752Z,98174.00
2022-11-03T21:40:53.668Z,98164.19
2022-11-03T21:43:41.253Z,98163.81
2022-11-03T21:46:09.659Z,98170.47
2022-11-03T21:49:00.188Z,98173.78
2022-11-03T21:51:26.721Z,98170.72
2022-11-03T21:53:53.192Z,98173.19
2022-11-03T21:56:19.772Z,98172.81
2022-11-03T21:58:46.282Z,98174.81
2022-11-03T22:01:13.006Z,98165.53
2022-11-03T22:03:39.766Z,98156.38
2022-11-03T22:06:10.089Z,98149.09
2022-11-03T22:08:37.369Z,98147.44
2022-11-03T22:11:23.448Z,98134.84
2022-11-03T22:13:56.434Z,98139.94
2022-11-03T22:16:50.323Z,98121.88
2022-11-03T22:19:40.212Z,98114.16
2022-11-03T22:22:30.552Z,98089.84
2022-11-03T22:25:15.933Z,98086.91
2022-11-03T22:27:42.640Z,98085.94
2022-11-03T22:30:28.136Z,98081.13
2022-11-03T22:32:56.576Z,98081.13
2022-11-03T22:35:43.271Z,98078.81
2022-11-03T22:38:14.935Z,98075.28
2022-11-03T22:41:01.214Z,98076.47
2022-11-03T22:43:47.027Z,98065.38
2022-11-03T22:46:15.065Z,98064.19
2022-11-03T22:48:41.744Z,98067.25
2022-11-03T22:51:10.916Z,98066.44
2022-11-03T22:53:56.423Z,98066.66
2022-11-03T22:56:24.650Z,98064.19
2022-11-03T22:58:51.578Z,98061.50
2022-11-03T23:01:20.419Z,98062.56
2022-11-03T23:03:47.678Z,98066.72
2022-11-03T23:06:20.049Z,98052.63
2022-11-03T23:08:47.809Z,98048.88
2022-11-03T23:11:26.096Z,98048.66
2022-11-03T23:13:53.472Z,98042.19
2022-11-03T23:16:22.533Z,98037.03
2022-11-03T23:19:08.117Z,98015.53
2022-11-03T23:21:35.485Z,98022.56
2022-11-03T23:24:20.732Z,98014.47
2022-11-03T23:26:47.577Z,98001.56
2022-11-03T23:29:14.565Z,97996.75
2022-11-03T23:31:42.845Z,98002.31
2022-11-03T23:34:10.619Z,97996.09
2022-11-03T23:36:37.161Z,97993.38
2022-11-03T23:39:04.113Z,97994.56
2022-11-03T23:41:30.839Z,97975.66
2022-11-03T23:43:57.644Z,97960.84
2022-11-03T23:46:45.081Z,97948.84
2022-11-03T23:49:12.147Z,97952.22
2022-11-03T23:51:39.183Z,97944.72
2022-11-03T23:54:07.366Z,97960.31
2022-11-03T23:56:55.155Z,97967.59
2022-11-03T23:59:22.175Z,97969.00
